createdAt,value
2019-04-26T00:01:17.066Z,11.57
2019-04-26T00:04:21.795Z,11.25
2019-04-26T00:07:26.529Z,10.99
2019-04-26T00:10:38.422Z,10.85
2019-04-26T00:14:01.577Z,10.71
2019-04-26T00:17:08.099Z,10.60
2019-04-26T00:20:14.861Z,10.40
2019-04-26T00:23:19.475Z,10.01
2019-04-26T00:26:24.020Z,10.42
2019-04-26T00:29:28.505Z,10.40
2019-04-26T00:32:32.985Z,10.29
2019-04-26T00:35:47.463Z,10.28
2019-04-26T00:38:44.024Z,10.38
2019-04-26T00:41:48.771Z,10.32
2019-04-26T00:44:54.291Z,10.30
2019-04-26T00:48:00.060Z,10.04
2019-04-26T00:51:05.401Z,10.35
2019-04-26T00:54:10.707Z,10.39
2019-04-26T00:57:18.117Z,10.36
2019-04-26T01:00:24.226Z,10.07
2019-04-26T01:03:28.991Z,10.18
2019-04-26T01:06:35.099Z,10.24
2019-04-26T01:09:39.853Z,10.23
2019-04-26T01:12:44.285Z,10.17
2019-04-26T01:15:49.436Z,10.21
2019-04-26T01:18:54.817Z,10.27
2019-04-26T01:22:04.301Z,10.17
2019-04-26T01:25:12.079Z,9.96
2019-04-26T01:28:33.289Z,10.35
2019-04-26T01:31:51.035Z,10.30
2019-04-26T01:38:20.293Z,10.44
2019-04-26T01:41:33.303Z,10.34
2019-04-26T01:44:44.155Z,10.41
2019-04-26T01:47:52.391Z,10.64
2019-04-26T01:50:56.906Z,10.54
2019-04-26T01:54:01.444Z,10.51
2019-04-26T01:57:06.405Z,10.40
2019-04-26T02:00:14.456Z,10.56
2019-04-26T02:03:29.973Z,10.43
2019-04-26T02:06:35.295Z,10.49
2019-04-26T02:09:40.355Z,10.50
2019-04-26T02:12:48.549Z,10.60
2019-04-26T02:15:53.031Z,10.43
2019-04-26T02:18:57.569Z,10.25
2019-04-26T02:22:08.125Z,10.39
2019-04-26T02:25:13.061Z,10.41
2019-04-26T02:28:17.530Z,10.67
2019-04-26T02:31:22.482Z,10.79
2019-04-26T02:34:29.381Z,10.73
2019-04-26T02:37:34.733Z,10.70
2019-04-26T02:40:40.011Z,10.79
2019-04-26T02:43:46.791Z,10.77
2019-04-26T02:47:21.363Z,10.81
2019-04-26T02:50:33.203Z,10.64
2019-04-26T02:54:10.410Z,10.71
2019-04-26T02:57:25.612Z,10.54
2019-04-26T03:00:31.609Z,10.34
2019-04-26T03:03:38.283Z,10.32
2019-04-26T03:07:01.808Z,10.19
2019-04-26T03:09:54.564Z,10.24
2019-04-26T03:13:02.589Z,10.18
2019-04-26T03:16:17.787Z,10.43
2019-04-26T03:19:43.573Z,10.58
2019-04-26T03:23:13.952Z,10.46
2019-04-26T03:26:43.800Z,10.39
2019-04-26T03:30:17.450Z,10.37
2019-04-26T03:33:53.243Z,10.51
2019-04-26T03:37:40.543Z,10.71
2019-04-26T03:41:07.189Z,10.80
2019-04-26T03:44:49.274Z,10.79
2019-04-26T03:48:31.737Z,10.69
2019-04-26T03:52:00.840Z,10.72
2019-04-26T03:55:32.256Z,10.66
2019-04-26T03:59:03.821Z,10.87
2019-04-26T04:02:18.686Z,10.80
2019-04-26T04:05:47.847Z,10.74
2019-04-26T04:09:07.940Z,10.96
2019-04-26T04:12:28.485Z,11.00
2019-04-26T04:15:45.962Z,11.03
2019-04-26T04:18:54.785Z,11.15
2019-04-26T04:22:17.438Z,11.24
2019-04-26T04:25:40.033Z,11.17
2019-04-26T04:29:39.134Z,11.25
2019-04-26T04:32:42.462Z,11.46
2019-04-26T04:35:54.503Z,11.63
2019-04-26T04:39:24.934Z,11.32
2019-04-26T04:42:41.568Z,11.34
2019-04-26T04:46:21.390Z,11.41
2019-04-26T04:49:45.005Z,11.61
2019-04-26T04:53:00.149Z,11.62
2019-04-26T04:56:11.974Z,11.82
2019-04-26T04:59:46.631Z,11.90
2019-04-26T05:03:25.797Z,11.87
2019-04-26T05:07:19.778Z,11.64
2019-04-26T05:10:45.581Z,11.66
2019-04-26T05:14:00.373Z,11.57
2019-04-26T05:17:46.155Z,11.54
2019-04-26T05:21:16.464Z,11.43
2019-04-26T05:24:55.349Z,11.53
2019-04-26T05:28:34.914Z,11.63
2019-04-26T05:32:18.921Z,11.57
2019-04-26T05:35:58.037Z,11.47
2019-04-26T05:39:20.972Z,11.64
2019-04-26T05:43:26.715Z,11.58
2019-04-26T05:47:12.619Z,11.52
2019-04-26T05:50:50.763Z,11.30
2019-04-26T05:54:39.972Z,11.27
2019-04-26T05:58:20.830Z,11.43
2019-04-26T06:02:15.668Z,11.29
2019-04-26T06:05:59.462Z,11.28
2019-04-26T06:09:16.847Z,11.18
2019-04-26T06:13:18.785Z,11.02
2019-04-26T06:16:46.331Z,10.96
2019-04-26T06:20:34.228Z,11.04
2019-04-26T06:23:58.266Z,10.92
2019-04-26T06:27:40.782Z,10.87
2019-04-26T06:30:55.478Z,10.87
2019-04-26T06:34:13.450Z,10.97
2019-04-26T06:37:36.287Z,10.96
2019-04-26T06:40:47.897Z,11.02
2019-04-26T06:44:07.342Z,10.84
2019-04-26T06:47:26.782Z,10.84
2019-04-26T06:50:50.865Z,10.77
2019-04-26T06:54:19.557Z,10.61
2019-04-26T06:58:03.096Z,10.69
2019-04-26T07:01:29.600Z,10.74
2019-04-26T07:05:01.366Z,10.97
2019-04-26T07:08:40.778Z,10.91
2019-04-26T07:12:07.611Z,10.85
2019-04-26T07:15:43.945Z,10.79
2019-04-26T07:19:11.241Z,10.89
2019-04-26T07:22:35.280Z,10.76
2019-04-26T07:26:06.391Z,10.83
2019-04-26T07:29:33.722Z,10.68
2019-04-26T07:32:59.852Z,10.68
2019-04-26T07:36:24.452Z,10.86
2019-04-26T07:39:51.944Z,10.65
2019-04-26T07:43:21.918Z,10.80
2019-04-26T07:47:01.561Z,10.79
2019-04-26T07:51:00.724Z,10.82
2019-04-26T07:54:45.297Z,10.89
2019-04-26T07:58:33.847Z,10.82
2019-04-26T08:02:14.383Z,10.77
2019-04-26T08:05:45.740Z,10.73
2019-04-26T08:08:58.041Z,10.72
2019-04-26T08:12:09.986Z,10.99
2019-04-26T08:15:25.634Z,10.94
2019-04-26T08:18:42.815Z,11.13
2019-04-26T08:21:49.929Z,11.21
2019-04-26T08:24:56.005Z,11.00
2019-04-26T08:28:03.260Z,11.05
2019-04-26T08:31:11.252Z,11.01
2019-04-26T08:34:26.106Z,11.08
2019-04-26T08:37:38.860Z,10.99
2019-04-26T08:40:44.941Z,10.90
2019-04-26T08:43:59.783Z,11.03
2019-04-26T08:47:26.304Z,11.08
2019-04-26T08:50:31.464Z,11.21
2019-04-26T08:53:39.070Z,11.27
2019-04-26T08:56:51.147Z,11.47
2019-04-26T08:59:58.359Z,11.42
2019-04-26T09:03:12.549Z,11.54
2019-04-26T09:06:23.922Z,11.54
2019-04-26T09:09:32.496Z,11.38
2019-04-26T09:12:40.180Z,11.48
2019-04-26T09:16:10.512Z,11.37
2019-04-26T09:19:15.105Z,11.39
2019-04-26T09:22:36.978Z,11.36
2019-04-26T09:25:43.957Z,11.24
2019-04-26T09:28:59.255Z,11.29
2019-04-26T09:32:03.544Z,11.29
2019-04-26T09:35:11.205Z,11.26
2019-04-26T09:38:15.044Z,11.36
2019-04-26T09:41:19.786Z,11.11
2019-04-26T09:44:34.161Z,11.10
2019-04-26T09:47:42.851Z,11.06
2019-04-26T09:50:49.164Z,11.28
2019-04-26T09:53:53.991Z,11.38
2019-04-26T09:56:58.424Z,11.34
2019-04-26T10:00:03.147Z,11.22
2019-04-26T10:03:09.479Z,11.38
2019-04-26T10:06:14.607Z,11.44
2019-04-26T10:09:21.398Z,11.56
2019-04-26T10:12:43.415Z,11.42
2019-04-26T10:16:02.440Z,11.36
2019-04-26T10:19:08.909Z,11.49
2019-04-26T10:22:13.350Z,11.32
2019-04-26T10:25:17.889Z,11.39
2019-04-26T10:28:22.645Z,11.22
2019-04-26T10:31:27.078Z,11.25
2019-04-26T10:34:31.524Z,11.25
2019-04-26T10:37:39.640Z,11.35
2019-04-26T10:40:42.129Z,11.41
2019-04-26T10:43:46.573Z,11.38
2019-04-26T10:46:55.547Z,11.51
2019-04-26T10:49:58.255Z,11.46
2019-04-26T10:53:16.598Z,11.54
2019-04-26T10:56:24.221Z,11.58
2019-04-26T10:59:31.874Z,11.46
2019-04-26T11:02:36.480Z,11.57
2019-04-26T11:05:40.920Z,11.61
2019-04-26T11:08:45.361Z,11.70
2019-04-26T11:11:49.797Z,11.73
2019-04-26T11:14:56.937Z,11.90
2019-04-26T11:18:00.421Z,12.00
2019-04-26T11:21:05.400Z,11.99
2019-04-26T11:24:10.122Z,11.82
2019-04-26T11:27:14.846Z,11.85
2019-04-26T11:30:21.233Z,11.82
2019-04-26T11:33:25.752Z,11.97
2019-04-26T11:36:30.561Z,12.04
2019-04-26T11:39:36.455Z,12.26
2019-04-26T11:42:41.877Z,12.04
2019-04-26T11:45:49.260Z,11.96
2019-04-26T11:48:59.100Z,12.16
2019-04-26T11:52:02.926Z,12.25
2019-04-26T11:55:07.841Z,12.44
2019-04-26T11:58:12.272Z,12.44
2019-04-26T12:01:18.352Z,12.26
2019-04-26T12:04:24.432Z,12.37
2019-04-26T12:07:46.753Z,12.42
2019-04-26T12:10:51.597Z,12.25
2019-04-26T12:13:59.486Z,12.29
2019-04-26T12:17:03.316Z,12.18
2019-04-26T12:20:08.204Z,12.14
2019-04-26T12:23:18.757Z,12.24
2019-04-26T12:26:21.614Z,12.45
2019-04-26T12:29:25.621Z,12.42
2019-04-26T12:32:30.342Z,12.48
2019-04-26T12:35:34.784Z,12.52
2019-04-26T12:38:39.220Z,12.76
2019-04-26T12:41:43.661Z,12.89
2019-04-26T12:44:50.034Z,12.92
2019-04-26T12:48:02.114Z,12.78
2019-04-26T12:51:08.212Z,12.52
2019-04-26T12:54:12.712Z,12.50
2019-04-26T12:57:17.415Z,12.37
2019-04-26T13:00:25.993Z,12.64
2019-04-26T13:03:30.761Z,12.64
2019-04-26T13:06:37.950Z,12.65
2019-04-26T13:09:44.022Z,12.70
2019-04-26T13:12:48.232Z,12.87
2019-04-26T13:16:09.586Z,12.80
2019-04-26T13:19:15.994Z,12.54
2019-04-26T13:22:20.646Z,12.47
2019-04-26T13:25:26.642Z,12.47
2019-04-26T13:28:31.247Z,12.39
2019-04-26T13:31:35.680Z,12.21
2019-04-26T13:34:40.110Z,12.03
2019-04-26T13:37:44.801Z,12.02
2019-04-26T13:40:49.343Z,11.91
2019-04-26T13:43:57.098Z,11.88
2019-04-26T13:47:07.959Z,11.98
2019-04-26T13:50:17.941Z,12.00
2019-04-26T13:53:25.742Z,12.02
2019-04-26T13:56:32.101Z,12.04
2019-04-26T13:59:35.335Z,12.12
2019-04-26T14:02:39.777Z,11.99
2019-04-26T14:05:44.209Z,11.98
2019-04-26T14:08:48.923Z,11.92
2019-04-26T14:11:53.359Z,11.93
2019-04-26T14:14:58.067Z,12.04
2019-04-26T14:18:04.385Z,12.14
2019-04-26T14:21:08.966Z,12.11
2019-04-26T14:24:15.716Z,12.15
2019-04-26T14:27:26.516Z,12.19
2019-04-26T14:30:30.953Z,11.82
2019-04-26T14:33:36.285Z,11.99
2019-04-26T14:36:43.548Z,12.10
2019-04-26T14:39:50.567Z,12.17
2019-04-26T14:43:06.033Z,12.10
2019-04-26T14:45:59.843Z,12.42
2019-04-26T14:49:05.807Z,12.53
2019-04-26T14:52:10.707Z,12.77
2019-04-26T14:55:16.661Z,12.88
2019-04-26T14:58:23.847Z,13.10
2019-04-26T15:01:35.019Z,13.06
2019-04-26T15:04:39.365Z,13.39
2019-04-26T15:07:50.939Z,13.43
2019-04-26T15:10:57.619Z,13.47
2019-04-26T15:13:56.131Z,13.49
2019-04-26T15:17:02.550Z,13.38
2019-04-26T15:20:07.613Z,13.19
2019-04-26T15:23:13.239Z,13.31
2019-04-26T15:26:18.420Z,13.21
2019-04-26T15:29:26.913Z,13.28
2019-04-26T15:32:32.830Z,13.27
2019-04-26T15:35:36.906Z,13.28
2019-04-26T15:38:44.889Z,13.18
2019-04-26T15:41:51.629Z,13.13
2019-04-26T15:45:05.948Z,12.95
2019-04-26T15:48:20.154Z,12.90
2019-04-26T15:51:27.472Z,12.87
2019-04-26T15:54:32.374Z,13.04
2019-04-26T15:57:36.918Z,13.12
2019-04-26T16:00:42.873Z,12.96
2019-04-26T16:03:47.354Z,12.74
2019-04-26T16:06:52.215Z,12.79
2019-04-26T16:09:59.229Z,12.99
2019-04-26T16:13:16.192Z,12.97
2019-04-26T16:16:09.105Z,12.96
2019-04-26T16:19:13.554Z,13.02
2019-04-26T16:22:18.297Z,13.06
2019-04-26T16:25:23.032Z,13.08
2019-04-26T16:28:27.219Z,12.76
2019-04-26T16:31:42.101Z,12.75
2019-04-26T16:34:47.824Z,12.90
2019-04-26T16:37:53.507Z,13.00
2019-04-26T16:40:58.025Z,13.08
2019-04-26T16:44:02.841Z,13.13
2019-04-26T16:47:07.698Z,12.96
2019-04-26T16:50:14.928Z,12.95
2019-04-26T16:53:39.749Z,12.85
2019-04-26T16:59:31.090Z,12.80
2019-04-26T17:02:37.241Z,12.63
2019-04-26T17:08:54.142Z,12.53
2019-04-26T17:09:38.416Z,12.88
2019-04-26T17:09:41.878Z,12.54
2019-04-26T17:11:54.256Z,12.53
2019-04-26T17:14:58.695Z,12.36
2019-04-26T17:18:03.170Z,12.41
2019-04-26T17:21:07.937Z,12.41
2019-04-26T17:24:22.696Z,12.33
2019-04-26T17:27:27.138Z,12.36
2019-04-26T17:30:34.505Z,12.32
2019-04-26T17:33:37.739Z,12.37
2019-04-26T17:36:42.186Z,12.31
2019-04-26T17:39:47.474Z,12.19
2019-04-26T17:42:53.436Z,12.09
2019-04-26T17:45:58.269Z,12.02
2019-04-26T17:49:03.001Z,12.03
2019-04-26T17:52:07.452Z,12.02
2019-04-26T17:55:14.263Z,12.09
2019-04-26T17:58:27.523Z,12.08
2019-04-26T18:01:41.990Z,12.05
2019-04-26T18:04:36.087Z,12.15
2019-04-26T18:07:43.569Z,12.16
2019-04-26T18:10:43.393Z,12.17
2019-04-26T18:13:51.221Z,12.15
2019-04-26T18:16:57.181Z,11.84
2019-04-26T18:20:05.163Z,11.76
2019-04-26T18:23:15.448Z,11.67
2019-04-26T18:26:21.581Z,11.63
2019-04-26T18:29:29.438Z,11.75
2019-04-26T18:32:36.847Z,11.80
2019-04-26T18:35:38.032Z,11.82
2019-04-26T18:38:48.458Z,11.88
2019-04-26T18:41:48.933Z,11.88
2019-04-26T18:44:53.974Z,11.85
2019-04-26T18:48:01.289Z,11.84
2019-04-26T18:51:07.440Z,11.89
2019-04-26T18:54:17.690Z,11.88
2019-04-26T18:57:20.252Z,11.84
2019-04-26T19:00:29.601Z,11.79
2019-04-26T19:03:34.086Z,11.61
2019-04-26T19:06:42.331Z,11.72
2019-04-26T19:09:58.770Z,11.47
2019-04-26T19:12:52.302Z,11.39
2019-04-26T19:16:01.049Z,11.32
2019-04-26T19:19:06.528Z,11.23
2019-04-26T19:22:15.503Z,11.14
2019-04-26T19:25:21.474Z,11.12
2019-04-26T19:28:24.036Z,11.04
2019-04-26T19:31:28.882Z,11.00
2019-04-26T19:34:33.327Z,10.95
2019-04-26T19:37:38.088Z,10.96
2019-04-26T19:40:46.360Z,10.94
2019-04-26T19:43:48.950Z,10.96
2019-04-26T19:46:58.059Z,11.07
2019-04-26T19:50:21.774Z,11.20
2019-04-26T19:53:33.479Z,11.20
2019-04-26T19:56:39.549Z,11.04
2019-04-26T19:59:43.996Z,11.06
2019-04-26T20:02:48.443Z,11.16
2019-04-26T20:05:53.015Z,11.11
2019-04-26T20:08:57.723Z,11.10
2019-04-26T20:12:02.665Z,11.22
2019-04-26T20:15:24.934Z,11.31
2019-04-26T20:18:17.585Z,11.31
2019-04-26T20:21:22.221Z,11.24
2019-04-26T20:24:26.682Z,11.29
2019-04-26T20:27:32.327Z,11.26
2019-04-26T20:30:57.865Z,11.05
2019-04-26T20:34:05.272Z,11.13
2019-04-26T20:37:07.405Z,11.08
2019-04-26T20:40:20.181Z,11.15
2019-04-26T20:43:24.432Z,11.10
2019-04-26T20:46:25.187Z,11.10
2019-04-26T20:49:29.742Z,11.13
2019-04-26T20:52:34.146Z,11.16
2019-04-26T20:55:38.593Z,11.13
2019-04-26T20:58:46.853Z,11.12
2019-04-26T21:02:02.651Z,11.02
2019-04-26T21:04:55.440Z,10.96
2019-04-26T21:07:59.873Z,10.88
2019-04-26T21:11:05.382Z,10.95
2019-04-26T21:14:09.824Z,10.97
2019-04-26T21:17:14.578Z,10.89
2019-04-26T21:20:19.073Z,10.74
2019-04-26T21:23:23.508Z,10.62
2019-04-26T21:26:42.483Z,10.60
2019-04-26T21:30:01.226Z,10.64
2019-04-26T21:33:19.967Z,10.56
2019-04-26T21:36:26.358Z,10.48
2019-04-26T21:39:35.239Z,10.28
2019-04-26T21:42:38.608Z,10.34
2019-04-26T21:45:44.054Z,10.45
2019-04-26T21:48:48.857Z,10.61
2019-04-26T21:51:54.315Z,10.69
2019-04-26T21:54:58.918Z,10.57
2019-04-26T21:58:05.126Z,10.58
2019-04-26T22:01:15.735Z,10.81
2019-04-26T22:04:17.502Z,10.78
2019-04-26T22:07:21.936Z,10.82
2019-04-26T22:10:30.666Z,10.87
2019-04-26T22:13:41.587Z,10.65
2019-04-26T22:16:50.399Z,10.63
2019-04-26T22:19:56.496Z,10.60
2019-04-26T22:23:00.696Z,10.48
2019-04-26T22:26:08.394Z,10.48
2019-04-26T22:29:16.551Z,10.54
2019-04-26T22:32:19.564Z,10.46
2019-04-26T22:35:24.292Z,10.39
2019-04-26T22:38:29.023Z,10.37
2019-04-26T22:41:33.877Z,10.28
2019-04-26T22:44:46.082Z,10.29
2019-04-26T22:48:00.990Z,10.23
2019-04-26T22:51:05.509Z,10.14
2019-04-26T22:54:10.293Z,10.18
2019-04-26T22:57:16.222Z,10.37
2019-04-26T23:00:27.931Z,10.47
2019-04-26T23:03:28.638Z,10.58
2019-04-26T23:06:33.794Z,10.61
2019-04-26T23:09:38.318Z,10.47
2019-04-26T23:12:44.413Z,10.33
2019-04-26T23:16:00.589Z,10.23
2019-04-26T23:19:24.897Z,10.19
2019-04-26T23:22:30.890Z,10.20
2019-04-26T23:25:35.998Z,10.27
2019-04-26T23:28:40.450Z,10.21
2019-04-26T23:31:44.891Z,10.22
2019-04-26T23:34:49.602Z,10.29
2019-04-26T23:37:56.464Z,10.14
2019-04-26T23:41:01.217Z,10.02
2019-04-26T23:44:06.722Z,9.98
2019-04-26T23:47:20.860Z,9.89
2019-04-26T23:50:17.726Z,10.00
2019-04-26T23:53:24.017Z,9.91
2019-04-26T23:56:28.664Z,10.14
2019-04-26T23:59:33.722Z,9.91
